sensor_id;sensor_type;location;lat;lon;timestamp;P1;durP1;ratioP1;P2;durP2;ratioP2
41261;SDS011;29629;52.532;13.352;2023-04-26T00:00:51;92.50;;;62.35;;
41261;SDS011;29629;52.532;13.352;2023-04-26T00:03:20;89.38;;;61.80;;
41261;SDS011;29629;52.532;13.352;2023-04-26T00:05:48;92.00;;;62.28;;
41261;SDS011;29629;52.532;13.352;2023-04-26T00:08:16;97.18;;;64.00;;
41261;SDS011;29629;52.532;13.352;2023-04-26T00:10:42;94.93;;;63.40;;
41261;SDS011;29629;52.532;13.352;2023-04-26T00:13:10;86.90;;;60.88;;
41261;SDS011;29629;52.532;13.352;2023-04-26T00:15:37;95.35;;;63.78;;
41261;SDS011;29629;52.532;13.352;2023-04-26T00:18:04;95.10;;;63.55;;
41261;SDS011;29629;52.532;13.352;2023-04-26T00:20:32;99.28;;;64.65;;
41261;SDS011;29629;52.532;13.352;2023-04-26T00:22:59;91.55;;;62.00;;
41261;SDS011;29629;52.532;13.352;2023-04-26T00:25:27;91.93;;;62.67;;
41261;SDS011;29629;52.532;13.352;2023-04-26T00:27:53;100.38;;;63.28;;
41261;SDS011;29629;52.532;13.352;2023-04-26T00:30:21;90.93;;;62.10;;
41261;SDS011;29629;52.532;13.352;2023-04-26T00:32:47;92.38;;;62.75;;
41261;SDS011;29629;52.532;13.352;2023-04-26T00:35:14;94.32;;;63.50;;
41261;SDS011;29629;52.532;13.352;2023-04-26T00:37:43;96.07;;;62.70;;
41261;SDS011;29629;52.532;13.352;2023-04-26T00:40:10;91.03;;;61.65;;
41261;SDS011;29629;52.532;13.352;2023-04-26T00:42:40;96.00;;;62.45;;
41261;SDS011;29629;52.532;13.352;2023-04-26T00:45:07;95.90;;;63.63;;
41261;SDS011;29629;52.532;13.352;2023-04-26T00:47:34;93.15;;;62.65;;
41261;SDS011;29629;52.532;13.352;2023-04-26T00:50:02;93.15;;;62.42;;
41261;SDS011;29629;52.532;13.352;2023-04-26T00:52:29;96.22;;;63.38;;
41261;SDS011;29629;52.532;13.352;2023-04-26T00:54:58;90.85;;;62.22;;
41261;SDS011;29629;52.532;13.352;2023-04-26T00:57:25;91.85;;;61.60;;
41261;SDS011;29629;52.532;13.352;2023-04-26T00:59:52;90.63;;;61.78;;
41261;SDS011;29629;52.532;13.352;2023-04-26T01:02:19;93.60;;;62.65;;
41261;SDS011;29629;52.532;13.352;2023-04-26T01:04:46;92.25;;;61.97;;
41261;SDS011;29629;52.532;13.352;2023-04-26T01:07:12;90.90;;;61.60;;
41261;SDS011;29629;52.532;13.352;2023-04-26T01:09:39;84.65;;;60.28;;
41261;SDS011;29629;52.532;13.352;2023-04-26T01:12:08;89.10;;;60.40;;
41261;SDS011;29629;52.532;13.352;2023-04-26T01:14:36;98.72;;;64.38;;
41261;SDS011;29629;52.532;13.352;2023-04-26T01:17:04;91.35;;;61.65;;
41261;SDS011;29629;52.532;13.352;2023-04-26T01:19:31;93.82;;;62.95;;
41261;SDS011;29629;52.532;13.352;2023-04-26T01:22:01;95.00;;;62.92;;
41261;SDS011;29629;52.532;13.352;2023-04-26T01:24:29;91.93;;;61.90;;
41261;SDS011;29629;52.532;13.352;2023-04-26T01:26:57;93.97;;;63.53;;
41261;SDS011;29629;52.532;13.352;2023-04-26T01:29:25;97.35;;;65.60;;
41261;SDS011;29629;52.532;13.352;2023-04-26T01:31:52;104.10;;;66.10;;
41261;SDS011;29629;52.532;13.352;2023-04-26T01:34:19;89.57;;;61.30;;
41261;SDS011;29629;52.532;13.352;2023-04-26T01:36:46;91.18;;;61.70;;
41261;SDS011;29629;52.532;13.352;2023-04-26T01:39:13;89.65;;;61.38;;
41261;SDS011;29629;52.532;13.352;2023-04-26T01:41:41;94.68;;;63.03;;
41261;SDS011;29629;52.532;13.352;2023-04-26T01:44:08;90.90;;;61.80;;
41261;SDS011;29629;52.532;13.352;2023-04-26T01:46:35;96.53;;;63.13;;
41261;SDS011;29629;52.532;13.352;2023-04-26T01:49:02;87.15;;;60.97;;
41261;SDS011;29629;52.532;13.352;2023-04-26T01:51:29;91.07;;;61.78;;
41261;SDS011;29629;52.532;13.352;2023-04-26T01:53:56;92.20;;;62.15;;
41261;SDS011;29629;52.532;13.352;2023-04-26T01:56:23;94.68;;;63.15;;
41261;SDS011;29629;52.532;13.352;2023-04-26T01:58:52;98.38;;;64.95;;
41261;SDS011;29629;52.532;13.352;2023-04-26T02:01:20;87.80;;;60.85;;
41261;SDS011;29629;52.532;13.352;2023-04-26T02:03:47;103.30;;;65.53;;
41261;SDS011;29629;52.532;13.352;2023-04-26T02:06:14;89.80;;;61.75;;
41261;SDS011;29629;52.532;13.352;2023-04-26T02:08:41;98.25;;;63.63;;
41261;SDS011;29629;52.532;13.352;2023-04-26T02:11:08;90.63;;;61.60;;
41261;SDS011;29629;52.532;13.352;2023-04-26T02:13:35;92.18;;;61.40;;
41261;SDS011;29629;52.532;13.352;2023-04-26T02:16:04;90.35;;;60.83;;
41261;SDS011;29629;52.532;13.352;2023-04-26T02:18:31;85.00;;;59.60;;
41261;SDS011;29629;52.532;13.352;2023-04-26T02:20:58;98.93;;;64.10;;
41261;SDS011;29629;52.532;13.352;2023-04-26T02:23:25;95.85;;;63.50;;
41261;SDS011;29629;52.532;13.352;2023-04-26T02:25:52;93.93;;;62.28;;
41261;SDS011;29629;52.532;13.352;2023-04-26T02:28:19;94.80;;;61.85;;
41261;SDS011;29629;52.532;13.352;2023-04-26T02:30:46;92.70;;;61.92;;
41261;SDS011;29629;52.532;13.352;2023-04-26T02:33:15;90.40;;;62.38;;
41261;SDS011;29629;52.532;13.352;2023-04-26T02:35:42;91.40;;;62.10;;
41261;SDS011;29629;52.532;13.352;2023-04-26T02:38:08;90.47;;;59.70;;
41261;SDS011;29629;52.532;13.352;2023-04-26T02:40:35;91.22;;;61.67;;
41261;SDS011;29629;52.532;13.352;2023-04-26T02:43:02;89.45;;;60.95;;
41261;SDS011;29629;52.532;13.352;2023-04-26T02:45:29;94.88;;;64.63;;
41261;SDS011;29629;52.532;13.352;2023-04-26T02:47:56;86.30;;;63.38;;
41261;SDS011;29629;52.532;13.352;2023-04-26T02:50:24;91.30;;;61.97;;
41261;SDS011;29629;52.532;13.352;2023-04-26T02:52:51;94.40;;;63.22;;
41261;SDS011;29629;52.532;13.352;2023-04-26T02:55:18;98.00;;;63.30;;
41261;SDS011;29629;52.532;13.352;2023-04-26T02:57:45;93.20;;;62.75;;
41261;SDS011;29629;52.532;13.352;2023-04-26T03:00:12;91.95;;;61.00;;
41261;SDS011;29629;52.532;13.352;2023-04-26T03:02:39;89.90;;;61.20;;
41261;SDS011;29629;52.532;13.352;2023-04-26T03:05:07;83.15;;;59.08;;
41261;SDS011;29629;52.532;13.352;2023-04-26T03:07:36;93.63;;;62.17;;
41261;SDS011;29629;52.532;13.352;2023-04-26T03:10:03;92.47;;;61.25;;
41261;SDS011;29629;52.532;13.352;2023-04-26T03:12:30;89.07;;;62.15;;
41261;SDS011;29629;52.532;13.352;2023-04-26T03:14:57;94.03;;;73.97;;
41261;SDS011;29629;52.532;13.352;2023-04-26T03:17:27;97.82;;;63.78;;
41261;SDS011;29629;52.532;13.352;2023-04-26T03:19:54;103.18;;;64.03;;
41261;SDS011;29629;52.532;13.352;2023-04-26T03:22:20;86.75;;;60.15;;
41261;SDS011;29629;52.532;13.352;2023-04-26T03:24:49;95.38;;;62.47;;
41261;SDS011;29629;52.532;13.352;2023-04-26T03:27:16;89.20;;;60.63;;
41261;SDS011;29629;52.532;13.352;2023-04-26T03:29:43;93.35;;;61.72;;
41261;SDS011;29629;52.532;13.352;2023-04-26T03:32:10;94.78;;;62.40;;
41261;SDS011;29629;52.532;13.352;2023-04-26T03:34:37;89.78;;;61.22;;
41261;SDS011;29629;52.532;13.352;2023-04-26T03:37:04;88.57;;;61.38;;
41261;SDS011;29629;52.532;13.352;2023-04-26T03:39:31;81.93;;;59.10;;
41261;SDS011;29629;52.532;13.352;2023-04-26T03:41:59;92.22;;;62.47;;
41261;SDS011;29629;52.532;13.352;2023-04-26T03:44:28;84.63;;;60.10;;
41261;SDS011;29629;52.532;13.352;2023-04-26T03:46:54;90.97;;;62.70;;
41261;SDS011;29629;52.532;13.352;2023-04-26T03:49:21;86.22;;;60.47;;
41261;SDS011;29629;52.532;13.352;2023-04-26T03:51:48;89.03;;;62.35;;
41261;SDS011;29629;52.532;13.352;2023-04-26T03:54:15;88.32;;;61.25;;
41261;SDS011;29629;52.532;13.352;2023-04-26T03:56:42;90.70;;;63.17;;
41261;SDS011;29629;52.532;13.352;2023-04-26T03:59:10;86.07;;;60.38;;
41261;SDS011;29629;52.532;13.352;2023-04-26T04:01:37;79.97;;;58.60;;
41261;SDS011;29629;52.532;13.352;2023-04-26T04:04:04;88.72;;;61.97;;
41261;SDS011;29629;52.532;13.352;2023-04-26T04:06:31;83.80;;;59.83;;
41261;SDS011;29629;52.532;13.352;2023-04-26T04:08:58;88.40;;;61.50;;
41261;SDS011;29629;52.532;13.352;2023-04-26T04:11:25;84.82;;;59.72;;
41261;SDS011;29629;52.532;13.352;2023-04-26T04:13:52;86.47;;;61.28;;
41261;SDS011;29629;52.532;13.352;2023-04-26T04:16:20;86.05;;;60.75;;
41261;SDS011;29629;52.532;13.352;2023-04-26T04:18:47;87.05;;;61.30;;
41261;SDS011;29629;52.532;13.352;2023-04-26T04:21:14;81.97;;;59.55;;
41261;SDS011;29629;52.532;13.352;2023-04-26T04:23:41;83.78;;;59.95;;
41261;SDS011;29629;52.532;13.352;2023-04-26T04:26:08;92.28;;;62.47;;
41261;SDS011;29629;52.532;13.352;2023-04-26T04:28:36;85.45;;;60.58;;
41261;SDS011;29629;52.532;13.352;2023-04-26T04:31:05;95.68;;;62.63;;
41261;SDS011;29629;52.532;13.352;2023-04-26T04:33:35;88.90;;;61.28;;
41261;SDS011;29629;52.532;13.352;2023-04-26T04:36:03;92.10;;;62.53;;
41261;SDS011;29629;52.532;13.352;2023-04-26T04:38:30;87.15;;;60.47;;
41261;SDS011;29629;52.532;13.352;2023-04-26T04:40:57;93.47;;;63.17;;
41261;SDS011;29629;52.532;13.352;2023-04-26T04:43:24;90.22;;;61.88;;
41261;SDS011;29629;52.532;13.352;2023-04-26T04:45:52;93.88;;;62.70;;
41261;SDS011;29629;52.532;13.352;2023-04-26T04:48:19;91.78;;;62.33;;
41261;SDS011;29629;52.532;13.352;2023-04-26T04:50:47;90.60;;;62.10;;
41261;SDS011;29629;52.532;13.352;2023-04-26T04:53:15;91.15;;;62.03;;
41261;SDS011;29629;52.532;13.352;2023-04-26T04:55:42;95.03;;;62.63;;
41261;SDS011;29629;52.532;13.352;2023-04-26T04:58:08;96.55;;;63.95;;
41261;SDS011;29629;52.532;13.352;2023-04-26T05:00:37;91.38;;;62.88;;
41261;SDS011;29629;52.532;13.352;2023-04-26T05:03:04;91.00;;;62.22;;
41261;SDS011;29629;52.532;13.352;2023-04-26T05:05:33;90.82;;;62.33;;
41261;SDS011;29629;52.532;13.352;2023-04-26T05:08:02;101.38;;;64.35;;
41261;SDS011;29629;52.532;13.352;2023-04-26T05:10:31;91.28;;;62.33;;
41261;SDS011;29629;52.532;13.352;2023-04-26T05:12:59;118.53;;;71.82;;
41261;SDS011;29629;52.532;13.352;2023-04-26T05:15:26;92.75;;;63.90;;
41261;SDS011;29629;52.532;13.352;2023-04-26T05:17:53;96.85;;;65.57;;
41261;SDS011;29629;52.532;13.352;2023-04-26T05:20:21;97.13;;;65.78;;
41261;SDS011;29629;52.532;13.352;2023-04-26T05:22:48;99.32;;;66.57;;
41261;SDS011;29629;52.532;13.352;2023-04-26T05:25:17;95.82;;;66.05;;
41261;SDS011;29629;52.532;13.352;2023-04-26T05:27:44;96.53;;;65.75;;
41261;SDS011;29629;52.532;13.352;2023-04-26T05:30:11;100.35;;;66.35;;
41261;SDS011;29629;52.532;13.352;2023-04-26T05:32:38;95.55;;;64.85;;
41261;SDS011;29629;52.532;13.352;2023-04-26T05:35:05;93.65;;;64.68;;
41261;SDS011;29629;52.532;13.352;2023-04-26T05:37:33;97.40;;;66.43;;
41261;SDS011;29629;52.532;13.352;2023-04-26T05:40:00;100.90;;;65.85;;
41261;SDS011;29629;52.532;13.352;2023-04-26T05:42:30;88.32;;;63.15;;
41261;SDS011;29629;52.532;13.352;2023-04-26T05:44:57;93.55;;;65.03;;
41261;SDS011;29629;52.532;13.352;2023-04-26T05:47:24;96.13;;;65.85;;
41261;SDS011;29629;52.532;13.352;2023-04-26T05:49:51;88.20;;;64.18;;
41261;SDS011;29629;52.532;13.352;2023-04-26T05:52:18;97.43;;;66.15;;
41261;SDS011;29629;52.532;13.352;2023-04-26T05:54:44;100.75;;;66.03;;
41261;SDS011;29629;52.532;13.352;2023-04-26T05:57:11;98.78;;;68.10;;
41261;SDS011;29629;52.532;13.352;2023-04-26T05:59:40;96.75;;;66.45;;
41261;SDS011;29629;52.532;13.352;2023-04-26T06:02:07;100.63;;;66.78;;
41261;SDS011;29629;52.532;13.352;2023-04-26T06:04:34;90.68;;;64.97;;
41261;SDS011;29629;52.532;13.352;2023-04-26T06:07:00;97.68;;;66.85;;
41261;SDS011;29629;52.532;13.352;2023-04-26T06:09:29;100.20;;;65.60;;
41261;SDS011;29629;52.532;13.352;2023-04-26T06:11:57;102.25;;;67.85;;
41261;SDS011;29629;52.532;13.352;2023-04-26T06:14:24;106.65;;;82.55;;
41261;SDS011;29629;52.532;13.352;2023-04-26T06:16:52;100.53;;;68.20;;
41261;SDS011;29629;52.532;13.352;2023-04-26T06:19:19;96.63;;;66.50;;
41261;SDS011;29629;52.532;13.352;2023-04-26T06:21:46;99.93;;;68.07;;
41261;SDS011;29629;52.532;13.352;2023-04-26T06:24:13;98.28;;;67.55;;
41261;SDS011;29629;52.532;13.352;2023-04-26T06:26:40;100.85;;;68.10;;
41261;SDS011;29629;52.532;13.352;2023-04-26T06:29:07;97.30;;;66.35;;
41261;SDS011;29629;52.532;13.352;2023-04-26T06:31:35;94.18;;;65.40;;
41261;SDS011;29629;52.532;13.352;2023-04-26T06:34:04;101.75;;;67.15;;
41261;SDS011;29629;52.532;13.352;2023-04-26T06:36:31;96.63;;;66.32;;
41261;SDS011;29629;52.532;13.352;2023-04-26T06:38:58;109.10;;;71.32;;
41261;SDS011;29629;52.532;13.352;2023-04-26T06:41:25;97.43;;;67.30;;
41261;SDS011;29629;52.532;13.352;2023-04-26T06:43:52;98.07;;;69.53;;
41261;SDS011;29629;52.532;13.352;2023-04-26T06:46:18;99.40;;;70.10;;
41261;SDS011;29629;52.532;13.352;2023-04-26T06:48:45;100.05;;;68.45;;
41261;SDS011;29629;52.532;13.352;2023-04-26T06:51:13;98.65;;;67.38;;
41261;SDS011;29629;52.532;13.352;2023-04-26T06:53:40;101.43;;;69.68;;
41261;SDS011;29629;52.532;13.352;2023-04-26T06:56:07;103.25;;;69.78;;
41261;SDS011;29629;52.532;13.352;2023-04-26T06:58:34;93.15;;;66.50;;
41261;SDS011;29629;52.532;13.352;2023-04-26T07:01:01;101.53;;;69.05;;
41261;SDS011;29629;52.532;13.352;2023-04-26T07:03:30;105.20;;;68.55;;
41261;SDS011;29629;52.532;13.352;2023-04-26T07:05:58;94.57;;;66.57;;
41261;SDS011;29629;52.532;13.352;2023-04-26T07:08:27;99.63;;;68.45;;
41261;SDS011;29629;52.532;13.352;2023-04-26T07:10:54;100.68;;;68.28;;
41261;SDS011;29629;52.532;13.352;2023-04-26T07:13:21;100.80;;;68.70;;
41261;SDS011;29629;52.532;13.352;2023-04-26T07:15:47;96.15;;;66.55;;
41261;SDS011;29629;52.532;13.352;2023-04-26T07:18:15;104.57;;;70.10;;
41261;SDS011;29629;52.532;13.352;2023-04-26T07:20:41;98.78;;;68.05;;
41261;SDS011;29629;52.532;13.352;2023-04-26T07:23:08;99.10;;;68.45;;
41261;SDS011;29629;52.532;13.352;2023-04-26T07:25:37;103.25;;;69.60;;
41261;SDS011;29629;52.532;13.352;2023-04-26T07:28:03;103.13;;;68.93;;
41261;SDS011;29629;52.532;13.352;2023-04-26T07:30:30;94.68;;;67.15;;
41261;SDS011;29629;52.532;13.352;2023-04-26T07:32:57;104.38;;;69.68;;
41261;SDS011;29629;52.532;13.352;2023-04-26T07:35:24;101.45;;;70.10;;
41261;SDS011;29629;52.532;13.352;2023-04-26T07:37:51;101.88;;;69.53;;
41261;SDS011;29629;52.532;13.352;2023-04-26T07:40:18;90.93;;;65.95;;
41261;SDS011;29629;52.532;13.352;2023-04-26T07:42:48;106.47;;;71.85;;
41261;SDS011;29629;52.532;13.352;2023-04-26T07:45:15;101.18;;;69.97;;
41261;SDS011;29629;52.532;13.352;2023-04-26T07:47:42;99.32;;;68.10;;
41261;SDS011;29629;52.532;13.352;2023-04-26T07:50:09;106.47;;;72.40;;
41261;SDS011;29629;52.532;13.352;2023-04-26T07:52:36;98.30;;;69.43;;
41261;SDS011;29629;52.532;13.352;2023-04-26T07:55:04;105.78;;;69.43;;
41261;SDS011;29629;52.532;13.352;2023-04-26T07:57:31;102.80;;;69.22;;
41261;SDS011;29629;52.532;13.352;2023-04-26T08:00:00;96.18;;;66.55;;
41261;SDS011;29629;52.532;13.352;2023-04-26T08:02:27;94.00;;;67.35;;
41261;SDS011;29629;52.532;13.352;2023-04-26T08:04:53;100.75;;;69.35;;
41261;SDS011;29629;52.532;13.352;2023-04-26T08:07:21;103.95;;;70.35;;
41261;SDS011;29629;52.532;13.352;2023-04-26T08:09:48;109.18;;;72.25;;
41261;SDS011;29629;52.532;13.352;2023-04-26T08:12:15;98.80;;;68.68;;
41261;SDS011;29629;52.532;13.352;2023-04-26T08:14:42;102.88;;;70.03;;
41261;SDS011;29629;52.532;13.352;2023-04-26T08:17:11;108.13;;;71.60;;
41261;SDS011;29629;52.532;13.352;2023-04-26T08:19:38;99.28;;;69.07;;
41261;SDS011;29629;52.532;13.352;2023-04-26T08:22:05;108.95;;;71.55;;
41261;SDS011;29629;52.532;13.352;2023-04-26T08:24:32;104.93;;;70.07;;
41261;SDS011;29629;52.532;13.352;2023-04-26T08:26:59;105.97;;;71.18;;
41261;SDS011;29629;52.532;13.352;2023-04-26T08:29:26;98.68;;;68.90;;
41261;SDS011;29629;52.532;13.352;2023-04-26T08:31:53;99.47;;;68.78;;
41261;SDS011;29629;52.532;13.352;2023-04-26T08:34:22;101.50;;;69.30;;
41261;SDS011;29629;52.532;13.352;2023-04-26T08:36:49;107.07;;;71.07;;
41261;SDS011;29629;52.532;13.352;2023-04-26T08:39:16;101.15;;;69.22;;
41261;SDS011;29629;52.532;13.352;2023-04-26T08:41:43;100.22;;;69.65;;
41261;SDS011;29629;52.532;13.352;2023-04-26T08:44:14;107.07;;;70.85;;
41261;SDS011;29629;52.532;13.352;2023-04-26T08:46:43;101.65;;;69.70;;
41261;SDS011;29629;52.532;13.352;2023-04-26T08:49:19;106.57;;;72.47;;
41261;SDS011;29629;52.532;13.352;2023-04-26T08:51:55;102.65;;;69.88;;
41261;SDS011;29629;52.532;13.352;2023-04-26T08:54:23;99.00;;;70.07;;
41261;SDS011;29629;52.532;13.352;2023-04-26T08:56:51;104.55;;;70.75;;
41261;SDS011;29629;52.532;13.352;2023-04-26T08:59:20;99.65;;;70.47;;
41261;SDS011;29629;52.532;13.352;2023-04-26T09:01:48;101.38;;;70.80;;
41261;SDS011;29629;52.532;13.352;2023-04-26T09:04:15;108.03;;;72.47;;
41261;SDS011;29629;52.532;13.352;2023-04-26T09:06:44;100.68;;;69.47;;
41261;SDS011;29629;52.532;13.352;2023-04-26T09:09:11;107.20;;;72.22;;
41261;SDS011;29629;52.532;13.352;2023-04-26T09:11:53;100.90;;;70.15;;
41261;SDS011;29629;52.532;13.352;2023-04-26T09:14:20;101.40;;;70.45;;
41261;SDS011;29629;52.532;13.352;2023-04-26T09:16:47;102.72;;;71.00;;
41261;SDS011;29629;52.532;13.352;2023-04-26T09:19:14;102.93;;;70.13;;
41261;SDS011;29629;52.532;13.352;2023-04-26T09:21:42;99.60;;;69.88;;
41261;SDS011;29629;52.532;13.352;2023-04-26T09:24:11;103.03;;;70.90;;
41261;SDS011;29629;52.532;13.352;2023-04-26T09:26:39;102.90;;;70.85;;
41261;SDS011;29629;52.532;13.352;2023-04-26T09:29:10;106.20;;;72.47;;
41261;SDS011;29629;52.532;13.352;2023-04-26T09:31:39;104.18;;;69.90;;
41261;SDS011;29629;52.532;13.352;2023-04-26T09:34:08;102.63;;;71.28;;
41261;SDS011;29629;52.532;13.352;2023-04-26T09:36:47;100.25;;;70.03;;
41261;SDS011;29629;52.532;13.352;2023-04-26T09:39:17;103.25;;;71.53;;
41261;SDS011;29629;52.532;13.352;2023-04-26T09:41:56;93.82;;;68.90;;
41261;SDS011;29629;52.532;13.352;2023-04-26T09:44:23;100.20;;;71.55;;
41261;SDS011;29629;52.532;13.352;2023-04-26T09:47:01;97.63;;;70.22;;
41261;SDS011;29629;52.532;13.352;2023-04-26T09:49:30;93.10;;;69.70;;
41261;SDS011;29629;52.532;13.352;2023-04-26T09:52:03;94.10;;;72.25;;
41261;SDS011;29629;52.532;13.352;2023-04-26T09:54:38;96.50;;;71.63;;
41261;SDS011;29629;52.532;13.352;2023-04-26T09:57:06;105.35;;;73.65;;
41261;SDS011;29629;52.532;13.352;2023-04-26T09:59:43;94.85;;;70.13;;
41261;SDS011;29629;52.532;13.352;2023-04-26T10:02:15;110.03;;;73.03;;
41261;SDS011;29629;52.532;13.352;2023-04-26T10:04:45;104.05;;;72.78;;
41261;SDS011;29629;52.532;13.352;2023-04-26T10:07:16;104.70;;;72.40;;
41261;SDS011;29629;52.532;13.352;2023-04-26T10:09:44;103.53;;;72.22;;
41261;SDS011;29629;52.532;13.352;2023-04-26T10:12:12;106.82;;;72.28;;
41261;SDS011;29629;52.532;13.352;2023-04-26T10:14:40;104.63;;;71.68;;
41261;SDS011;29629;52.532;13.352;2023-04-26T10:17:08;103.07;;;71.70;;
41261;SDS011;29629;52.532;13.352;2023-04-26T10:19:39;99.88;;;71.57;;
41261;SDS011;29629;52.532;13.352;2023-04-26T10:22:09;104.63;;;71.13;;
41261;SDS011;29629;52.532;13.352;2023-04-26T10:24:39;100.50;;;69.93;;
41261;SDS011;29629;52.532;13.352;2023-04-26T10:27:09;105.25;;;71.45;;
41261;SDS011;29629;52.532;13.352;2023-04-26T10:35:26;110.53;;;71.43;;
41261;SDS011;29629;52.532;13.352;2023-04-26T10:38:07;102.38;;;69.30;;
41261;SDS011;29629;52.532;13.352;2023-04-26T10:40:37;99.20;;;69.28;;
41261;SDS011;29629;52.532;13.352;2023-04-26T10:45:53;103.32;;;70.90;;
41261;SDS011;29629;52.532;13.352;2023-04-26T10:48:22;107.60;;;70.78;;
41261;SDS011;29629;52.532;13.352;2023-04-26T10:51:06;108.30;;;72.15;;
41261;SDS011;29629;52.532;13.352;2023-04-26T10:59:21;102.00;;;71.32;;
41261;SDS011;29629;52.532;13.352;2023-04-26T11:01:47;104.05;;;71.35;;
41261;SDS011;29629;52.532;13.352;2023-04-26T11:04:15;106.03;;;72.22;;
41261;SDS011;29629;52.532;13.352;2023-04-26T11:06:46;101.63;;;69.90;;
41261;SDS011;29629;52.532;13.352;2023-04-26T11:09:33;101.72;;;69.60;;
41261;SDS011;29629;52.532;13.352;2023-04-26T11:12:04;102.40;;;69.00;;
41261;SDS011;29629;52.532;13.352;2023-04-26T11:14:32;205.52;;;100.00;;
41261;SDS011;29629;52.532;13.352;2023-04-26T11:17:01;97.85;;;68.00;;
41261;SDS011;29629;52.532;13.352;2023-04-26T11:19:29;100.43;;;67.80;;
41261;SDS011;29629;52.532;13.352;2023-04-26T11:21:57;94.60;;;66.00;;
41261;SDS011;29629;52.532;13.352;2023-04-26T11:24:24;97.35;;;66.78;;
41261;SDS011;29629;52.532;13.352;2023-04-26T11:26:52;98.28;;;67.47;;
41261;SDS011;29629;52.532;13.352;2023-04-26T11:29:20;97.95;;;67.47;;
41261;SDS011;29629;52.532;13.352;2023-04-26T11:31:51;100.35;;;67.82;;
41261;SDS011;29629;52.532;13.352;2023-04-26T11:34:21;104.95;;;69.55;;
41261;SDS011;29629;52.532;13.352;2023-04-26T11:36:56;99.53;;;68.25;;
41261;SDS011;29629;52.532;13.352;2023-04-26T11:39:23;102.68;;;68.70;;
41261;SDS011;29629;52.532;13.352;2023-04-26T11:41:54;105.13;;;69.47;;
41261;SDS011;29629;52.532;13.352;2023-04-26T11:44:30;98.80;;;67.78;;
41261;SDS011;29629;52.532;13.352;2023-04-26T11:46:57;96.43;;;66.97;;
41261;SDS011;29629;52.532;13.352;2023-04-26T11:49:25;96.30;;;67.18;;
41261;SDS011;29629;52.532;13.352;2023-04-26T11:51:53;92.05;;;65.57;;
41261;SDS011;29629;52.532;13.352;2023-04-26T11:54:27;103.30;;;68.70;;
41261;SDS011;29629;52.532;13.352;2023-04-26T11:56:55;97.95;;;67.57;;
41261;SDS011;29629;52.532;13.352;2023-04-26T11:59:25;97.65;;;67.65;;
41261;SDS011;29629;52.532;13.352;2023-04-26T12:01:56;98.85;;;68.05;;
41261;SDS011;29629;52.532;13.352;2023-04-26T12:04:27;122.22;;;79.63;;
41261;SDS011;29629;52.532;13.352;2023-04-26T12:06:55;74.07;;;61.33;;
41261;SDS011;29629;52.532;13.352;2023-04-26T12:09:23;80.25;;;63.85;;
41261;SDS011;29629;52.532;13.352;2023-04-26T12:11:58;71.65;;;60.42;;
41261;SDS011;29629;52.532;13.352;2023-04-26T12:14:29;84.95;;;67.20;;
41261;SDS011;29629;52.532;13.352;2023-04-26T12:16:59;87.47;;;67.43;;
41261;SDS011;29629;52.532;13.352;2023-04-26T12:19:27;88.88;;;69.32;;
41261;SDS011;29629;52.532;13.352;2023-04-26T12:21:54;93.78;;;70.63;;
41261;SDS011;29629;52.532;13.352;2023-04-26T12:24:22;86.78;;;67.13;;
41261;SDS011;29629;52.532;13.352;2023-04-26T12:26:49;90.43;;;67.43;;
41261;SDS011;29629;52.532;13.352;2023-04-26T12:29:16;97.82;;;69.40;;
41261;SDS011;29629;52.532;13.352;2023-04-26T12:31:43;101.68;;;69.82;;
41261;SDS011;29629;52.532;13.352;2023-04-26T12:34:13;99.75;;;68.68;;
41261;SDS011;29629;52.532;13.352;2023-04-26T12:36:40;93.88;;;66.28;;
41261;SDS011;29629;52.532;13.352;2023-04-26T12:39:08;105.85;;;70.95;;
41261;SDS011;29629;52.532;13.352;2023-04-26T12:41:37;99.60;;;67.65;;
41261;SDS011;29629;52.532;13.352;2023-04-26T12:44:04;96.20;;;66.82;;
41261;SDS011;29629;52.532;13.352;2023-04-26T12:46:32;87.85;;;65.25;;
41261;SDS011;29629;52.532;13.352;2023-04-26T12:48:59;98.13;;;68.35;;
41261;SDS011;29629;52.532;13.352;2023-04-26T12:51:27;85.50;;;64.93;;
41261;SDS011;29629;52.532;13.352;2023-04-26T12:53:56;76.93;;;63.58;;
41261;SDS011;29629;52.532;13.352;2023-04-26T12:56:23;80.45;;;62.75;;
41261;SDS011;29629;52.532;13.352;2023-04-26T12:58:50;71.85;;;59.92;;
41261;SDS011;29629;52.532;13.352;2023-04-26T13:01:17;59.20;;;52.80;;
41261;SDS011;29629;52.532;13.352;2023-04-26T13:03:44;70.85;;;61.15;;
41261;SDS011;29629;52.532;13.352;2023-04-26T13:06:11;83.65;;;64.63;;
41261;SDS011;29629;52.532;13.352;2023-04-26T13:08:40;80.20;;;66.38;;
41261;SDS011;29629;52.532;13.352;2023-04-26T13:11:07;85.57;;;68.00;;
41261;SDS011;29629;52.532;13.352;2023-04-26T13:13:34;88.53;;;68.47;;
41261;SDS011;29629;52.532;13.352;2023-04-26T13:16:00;89.38;;;68.13;;
41261;SDS011;29629;52.532;13.352;2023-04-26T13:18:27;87.68;;;66.72;;
41261;SDS011;29629;52.532;13.352;2023-04-26T13:20:55;85.68;;;66.55;;
41261;SDS011;29629;52.532;13.352;2023-04-26T13:23:21;91.65;;;68.25;;
41261;SDS011;29629;52.532;13.352;2023-04-26T13:25:50;89.32;;;67.38;;
41261;SDS011;29629;52.532;13.352;2023-04-26T13:28:17;105.15;;;73.05;;
41261;SDS011;29629;52.532;13.352;2023-04-26T13:30:44;101.45;;;70.32;;
41261;SDS011;29629;52.532;13.352;2023-04-26T13:33:10;104.75;;;72.15;;
41261;SDS011;29629;52.532;13.352;2023-04-26T13:35:38;104.22;;;70.43;;
41261;SDS011;29629;52.532;13.352;2023-04-26T13:38:04;106.43;;;69.90;;
41261;SDS011;29629;52.532;13.352;2023-04-26T13:40:31;93.90;;;67.00;;
41261;SDS011;29629;52.532;13.352;2023-04-26T13:43:00;92.53;;;66.78;;
41261;SDS011;29629;52.532;13.352;2023-04-26T13:45:27;92.20;;;66.13;;
41261;SDS011;29629;52.532;13.352;2023-04-26T13:47:54;100.00;;;68.57;;
41261;SDS011;29629;52.532;13.352;2023-04-26T13:50:21;102.10;;;68.93;;
41261;SDS011;29629;52.532;13.352;2023-04-26T13:52:48;97.72;;;67.38;;
41261;SDS011;29629;52.532;13.352;2023-04-26T13:55:17;105.03;;;69.47;;
41261;SDS011;29629;52.532;13.352;2023-04-26T13:57:43;95.72;;;67.78;;
41261;SDS011;29629;52.532;13.352;2023-04-26T14:00:13;95.00;;;66.90;;
41261;SDS011;29629;52.532;13.352;2023-04-26T14:02:40;94.43;;;67.00;;
41261;SDS011;29629;52.532;13.352;2023-04-26T14:05:07;94.13;;;67.40;;
41261;SDS011;29629;52.532;13.352;2023-04-26T14:07:34;116.63;;;75.28;;
41261;SDS011;29629;52.532;13.352;2023-04-26T14:10:02;98.63;;;66.85;;
41261;SDS011;29629;52.532;13.352;2023-04-26T14:12:29;97.57;;;67.18;;
41261;SDS011;29629;52.532;13.352;2023-04-26T14:14:56;100.88;;;68.20;;
41261;SDS011;29629;52.532;13.352;2023-04-26T14:17:25;98.10;;;67.20;;
41261;SDS011;29629;52.532;13.352;2023-04-26T14:19:53;104.55;;;71.47;;
41261;SDS011;29629;52.532;13.352;2023-04-26T14:22:20;95.95;;;67.75;;
41261;SDS011;29629;52.532;13.352;2023-04-26T14:24:47;96.53;;;67.78;;